CheckWX is a tool to help pilots better visualize weather data.  It is not intended as a substitute for an official pre-flight weather briefing.

00:30:19 UTC

GMMW TAF
Nador International Airport
Nador, Morocco
TAF GMMW 182300Z 1800/1906 24003KT CAVOK

Oct-18@
00:00 UTC

Oct-18 @ 00:00 UTC

Oct-19@
06:00 UTC

Oct-19 @ 06:00 UTC

TAF GMMW 182300Z 1800/1906 24003KT CAVOK
Wind
  • 240° at 3 KTS
Conditions
No significant weather
Cloud Levels
  • No significant clouds